createdAt,value
2022-07-25T00:00:20.491Z,99.99
2022-07-25T00:01:20.864Z,99.99
2022-07-25T00:02:20.400Z,99.99
2022-07-25T00:03:20.314Z,99.99
2022-07-25T00:04:20.286Z,99.99
2022-07-25T00:05:20.199Z,99.99
2022-07-25T00:06:20.133Z,99.99
2022-07-25T00:07:20.089Z,99.99
2022-07-25T00:08:20.019Z,99.99
2022-07-25T00:09:19.956Z,99.99
2022-07-25T00:10:19.900Z,99.99
2022-07-25T00:11:19.839Z,99.99
2022-07-25T00:12:19.787Z,99.99
2022-07-25T00:13:19.721Z,99.99
2022-07-25T00:14:19.664Z,99.99
2022-07-25T00:15:19.604Z,99.99
2022-07-25T00:16:19.659Z,99.99
2022-07-25T00:17:19.529Z,99.99
2022-07-25T00:18:19.429Z,99.99
2022-07-25T00:19:19.384Z,99.99
2022-07-25T00:20:19.310Z,99.93
2022-07-25T00:21:19.250Z,99.99
2022-07-25T00:22:19.355Z,99.99
2022-07-25T00:23:19.153Z,99.59
2022-07-25T00:24:19.096Z,99.40
2022-07-25T00:25:19.023Z,99.11
2022-07-25T00:26:18.970Z,98.82
2022-07-25T00:27:18.893Z,99.59
2022-07-25T00:28:18.830Z,98.92
2022-07-25T00:29:18.773Z,97.47
2022-07-25T00:30:18.713Z,99.30
2022-07-25T00:31:18.694Z,98.82
2022-07-25T00:32:18.600Z,98.72
2022-07-25T00:33:18.538Z,96.42
2022-07-25T00:34:18.475Z,96.80
2022-07-25T00:35:18.418Z,99.21
2022-07-25T00:36:18.358Z,99.99
2022-07-25T00:37:18.298Z,99.98
2022-07-25T00:38:18.254Z,99.99
2022-07-25T00:39:18.181Z,97.76
2022-07-25T00:40:18.122Z,96.22
2022-07-25T00:41:18.061Z,95.69
2022-07-25T00:42:18.004Z,96.94
2022-07-25T00:43:17.944Z,95.50
2022-07-25T00:44:17.903Z,95.21
2022-07-25T00:45:17.825Z,94.92
2022-07-25T00:46:18.844Z,93.96
2022-07-25T00:47:17.710Z,93.62
2022-07-25T00:48:17.655Z,95.21
2022-07-25T00:49:17.655Z,95.31
2022-07-25T00:50:17.527Z,94.73
2022-07-25T00:51:17.469Z,94.73
2022-07-25T00:52:17.414Z,93.76
2022-07-25T00:53:17.351Z,94.54
2022-07-25T00:54:17.295Z,93.66
2022-07-25T00:55:17.233Z,94.15
2022-07-25T00:56:17.172Z,97.42
2022-07-25T00:57:17.118Z,95.02
2022-07-25T00:58:17.054Z,95.50
2022-07-25T00:59:17.006Z,94.73
2022-07-25T01:00:16.958Z,93.96
2022-07-25T01:01:17.009Z,94.54
2022-07-25T01:02:16.866Z,95.79
2022-07-25T01:03:16.815Z,94.92
2022-07-25T01:04:16.754Z,95.50
2022-07-25T01:05:16.638Z,96.32
2022-07-25T01:06:16.582Z,97.19
2022-07-25T01:07:16.523Z,94.68
2022-07-25T01:08:16.464Z,95.36
2022-07-25T01:09:16.407Z,94.39
2022-07-25T01:10:16.346Z,95.55
2022-07-25T01:11:16.287Z,97.19
2022-07-25T01:12:16.226Z,97.47
2022-07-25T01:13:16.168Z,98.15
2022-07-25T01:14:16.110Z,95.98
2022-07-25T01:15:16.051Z,96.22
2022-07-25T01:16:16.037Z,96.56
2022-07-25T01:17:15.931Z,96.56
2022-07-25T01:18:15.871Z,96.75
2022-07-25T01:19:15.813Z,98.54
2022-07-25T01:20:15.754Z,99.54
2022-07-25T01:21:15.692Z,98.58
2022-07-25T01:22:15.665Z,97.04
2022-07-25T01:23:15.579Z,98.49
2022-07-25T01:24:15.516Z,96.37
2022-07-25T01:25:15.455Z,98.49
2022-07-25T01:26:15.401Z,99.35
2022-07-25T01:27:17.348Z,99.44
2022-07-25T01:28:15.286Z,99.16
2022-07-25T01:29:15.219Z,99.99
2022-07-25T01:30:15.169Z,99.99
2022-07-25T01:31:15.147Z,99.99
2022-07-25T01:32:15.042Z,99.99
2022-07-25T01:33:14.983Z,99.99
2022-07-25T01:34:14.924Z,99.99
2022-07-25T01:35:14.869Z,99.99
2022-07-25T01:36:14.809Z,99.99
2022-07-25T01:37:14.742Z,99.99
2022-07-25T01:38:14.689Z,99.99
2022-07-25T01:39:14.627Z,99.99
2022-07-25T01:40:14.591Z,99.99
2022-07-25T01:41:14.509Z,99.99
2022-07-25T01:42:14.452Z,99.99
2022-07-25T01:43:14.390Z,99.99
2022-07-25T01:44:14.337Z,99.99
2022-07-25T01:45:14.269Z,99.99
2022-07-25T01:46:14.273Z,99.99
2022-07-25T01:47:14.154Z,99.99
2022-07-25T01:48:14.094Z,99.99
2022-07-25T01:49:14.102Z,99.99
2022-07-25T01:50:13.980Z,99.99
2022-07-25T01:51:13.925Z,99.99
2022-07-25T01:52:13.860Z,99.99
2022-07-25T01:53:13.799Z,99.99
2022-07-25T01:54:13.738Z,99.99
2022-07-25T01:55:13.683Z,99.99
2022-07-25T01:56:13.620Z,99.99
2022-07-25T01:57:13.559Z,99.99
2022-07-25T01:58:13.502Z,99.99
2022-07-25T01:59:13.439Z,99.99
2022-07-25T02:00:13.386Z,99.99
2022-07-25T02:01:13.349Z,99.99
2022-07-25T02:02:13.267Z,99.99
2022-07-25T02:03:13.207Z,99.99
2022-07-25T02:04:13.189Z,99.99
2022-07-25T02:05:13.158Z,99.99
2022-07-25T02:06:13.029Z,99.99
2022-07-25T02:07:12.966Z,99.99
2022-07-25T02:08:12.907Z,99.99
2022-07-25T02:09:12.846Z,99.99
2022-07-25T02:10:12.804Z,99.99
2022-07-25T02:11:12.729Z,99.99
2022-07-25T02:12:12.676Z,99.99
2022-07-25T02:13:12.611Z,99.99
2022-07-25T02:14:12.552Z,99.99
2022-07-25T02:15:12.493Z,99.99
2022-07-25T02:16:12.433Z,99.99
2022-07-25T02:17:12.401Z,99.99
2022-07-25T02:18:12.342Z,99.99
2022-07-25T02:19:12.252Z,99.99
2022-07-25T02:20:12.196Z,99.99
2022-07-25T02:21:13.823Z,99.99
2022-07-25T02:22:12.076Z,99.99
2022-07-25T02:23:12.018Z,99.99
2022-07-25T02:24:11.958Z,99.99
2022-07-25T02:25:12.868Z,99.99
2022-07-25T02:26:11.837Z,99.99
2022-07-25T02:27:11.778Z,99.99
2022-07-25T02:28:11.732Z,99.99
2022-07-25T02:29:11.659Z,99.99
2022-07-25T02:30:11.676Z,99.99
2022-07-25T02:31:11.644Z,99.99
2022-07-25T02:32:11.482Z,99.99
2022-07-25T02:33:11.433Z,99.99
2022-07-25T02:34:11.364Z,99.99
2022-07-25T02:35:13.076Z,99.99
2022-07-25T02:36:11.243Z,99.99
2022-07-25T02:37:11.184Z,99.99
2022-07-25T02:38:11.128Z,99.99
2022-07-25T02:39:11.063Z,99.99
2022-07-25T02:40:11.005Z,99.99
2022-07-25T02:41:10.947Z,99.99
2022-07-25T02:42:10.884Z,99.99
2022-07-25T02:43:10.825Z,99.99
2022-07-25T02:44:10.872Z,99.99
2022-07-25T02:45:10.705Z,99.99
2022-07-25T02:46:10.752Z,99.99
2022-07-25T02:47:10.588Z,99.99
2022-07-25T02:48:10.532Z,99.99
2022-07-25T02:49:10.530Z,99.99
2022-07-25T02:50:14.512Z,99.99
2022-07-25T02:51:10.349Z,99.99
2022-07-25T02:52:10.290Z,99.99
2022-07-25T02:53:10.228Z,99.99
2022-07-25T02:54:10.487Z,99.99
2022-07-25T02:55:10.149Z,99.99
2022-07-25T02:56:10.051Z,99.99
2022-07-25T02:57:09.995Z,99.99
2022-07-25T02:58:09.933Z,99.99
2022-07-25T02:59:09.875Z,99.99
2022-07-25T03:00:09.873Z,99.99
2022-07-25T03:01:09.885Z,99.99
2022-07-25T03:02:09.692Z,99.99
2022-07-25T03:03:09.637Z,99.99
2022-07-25T03:04:10.409Z,99.99
2022-07-25T03:05:09.512Z,99.99
2022-07-25T03:06:09.457Z,99.99
2022-07-25T03:07:09.416Z,99.99
2022-07-25T03:08:09.335Z,99.99
2022-07-25T03:09:09.278Z,99.99
2022-07-25T03:10:11.059Z,99.99
2022-07-25T03:11:09.210Z,99.99
2022-07-25T03:12:09.095Z,99.99
2022-07-25T03:13:09.035Z,99.99
2022-07-25T03:14:09.244Z,99.99
2022-07-25T03:15:08.916Z,99.99
2022-07-25T03:16:08.858Z,99.99
2022-07-25T03:17:08.850Z,99.99
2022-07-25T03:18:09.495Z,99.99
2022-07-25T03:19:08.683Z,99.99
2022-07-25T03:20:08.620Z,99.99
2022-07-25T03:21:08.561Z,99.99
2022-07-25T03:22:08.500Z,99.99
2022-07-25T03:23:08.440Z,99.99
2022-07-25T03:24:08.757Z,99.99
2022-07-25T03:25:15.365Z,99.83
2022-07-25T03:26:08.260Z,99.99
2022-07-25T03:27:08.200Z,99.64
2022-07-25T03:28:08.145Z,99.73
2022-07-25T03:29:08.079Z,99.99
2022-07-25T03:30:08.022Z,99.99
2022-07-25T03:31:07.961Z,99.26
2022-07-25T03:32:07.937Z,99.99
2022-07-25T03:33:07.843Z,99.99
2022-07-25T03:34:08.281Z,99.99
2022-07-25T03:35:07.726Z,99.99
2022-07-25T03:36:07.663Z,99.99
2022-07-25T03:37:07.604Z,99.99
2022-07-25T03:38:07.545Z,99.99
2022-07-25T03:39:08.400Z,99.99
2022-07-25T03:40:07.427Z,99.99
2022-07-25T03:41:07.365Z,99.99
2022-07-25T03:42:07.307Z,99.99
2022-07-25T03:43:07.248Z,99.99
2022-07-25T03:44:07.650Z,99.99
2022-07-25T03:45:07.206Z,99.99
2022-07-25T03:46:07.198Z,99.99
2022-07-25T03:47:07.007Z,99.99
2022-07-25T03:48:06.946Z,99.99
2022-07-25T03:49:07.101Z,99.99
2022-07-25T03:50:06.826Z,99.99
2022-07-25T03:51:07.370Z,99.99
2022-07-25T03:52:06.710Z,99.99
2022-07-25T03:53:06.645Z,99.99
2022-07-25T03:54:07.055Z,99.99
2022-07-25T03:55:06.527Z,99.99
2022-07-25T03:56:06.470Z,99.99
2022-07-25T03:57:06.419Z,99.99
2022-07-25T03:58:06.349Z,99.99
2022-07-25T03:59:06.291Z,99.99
2022-07-25T04:00:06.233Z,99.99
2022-07-25T04:01:06.218Z,99.99
2022-07-25T04:02:06.164Z,99.99
2022-07-25T04:03:06.052Z,99.99
2022-07-25T04:04:06.257Z,99.99
2022-07-25T04:05:05.932Z,99.99
2022-07-25T04:06:05.873Z,99.99
2022-07-25T04:07:05.812Z,99.99
2022-07-25T04:08:05.753Z,99.99
2022-07-25T04:09:05.691Z,99.99
2022-07-25T04:10:05.638Z,99.99
2022-07-25T04:11:05.603Z,99.99
2022-07-25T04:12:05.524Z,99.99
2022-07-25T04:13:05.462Z,99.99
2022-07-25T04:14:05.702Z,99.99
2022-07-25T04:15:05.343Z,99.99
2022-07-25T04:16:05.339Z,99.99
2022-07-25T04:17:05.243Z,99.99
2022-07-25T04:18:05.161Z,99.99
2022-07-25T04:19:05.099Z,99.99
2022-07-25T04:20:05.630Z,99.99
2022-07-25T04:21:05.005Z,99.99
2022-07-25T04:22:04.925Z,99.99
2022-07-25T04:23:04.864Z,99.99
2022-07-25T04:24:05.092Z,99.99
2022-07-25T04:25:04.740Z,99.99
2022-07-25T04:26:04.705Z,99.99
2022-07-25T04:27:04.695Z,99.99
2022-07-25T04:28:04.599Z,99.99
2022-07-25T04:29:04.530Z,99.99
2022-07-25T04:30:04.438Z,99.99
2022-07-25T04:31:04.379Z,99.99
2022-07-25T04:32:04.423Z,99.99
2022-07-25T04:33:04.263Z,99.99
2022-07-25T04:34:04.568Z,99.99
2022-07-25T04:35:04.143Z,99.99
2022-07-25T04:36:04.087Z,99.99
2022-07-25T04:37:04.024Z,99.99
2022-07-25T04:38:07.614Z,99.99
2022-07-25T04:39:03.902Z,99.99
2022-07-25T04:40:03.847Z,99.99
2022-07-25T04:41:03.788Z,99.99
2022-07-25T04:42:03.731Z,99.99
2022-07-25T04:43:03.665Z,99.99
2022-07-25T04:44:03.993Z,99.99
2022-07-25T04:45:03.548Z,99.99
2022-07-25T04:46:03.569Z,99.88
2022-07-25T04:47:03.426Z,99.49
2022-07-25T04:48:03.371Z,98.87
2022-07-25T04:49:03.381Z,98.77
2022-07-25T04:50:03.249Z,98.68
2022-07-25T04:51:03.186Z,97.72
2022-07-25T04:52:03.134Z,98.34
2022-07-25T04:53:03.068Z,97.33
2022-07-25T04:54:03.305Z,96.70
2022-07-25T04:55:02.950Z,96.61
2022-07-25T04:56:02.891Z,97.47
2022-07-25T04:57:02.828Z,96.42
2022-07-25T04:58:02.773Z,96.51
2022-07-25T04:59:06.695Z,95.74
2022-07-25T05:00:02.658Z,94.54
2022-07-25T05:01:02.654Z,95.89
2022-07-25T05:02:02.617Z,94.73
2022-07-25T05:03:02.474Z,93.96
2022-07-25T05:04:02.536Z,93.66
2022-07-25T05:05:03.076Z,93.76
2022-07-25T05:06:02.294Z,94.63
2022-07-25T05:07:02.233Z,93.33
2022-07-25T05:08:02.179Z,93.62
2022-07-25T05:09:02.116Z,92.27
2022-07-25T05:10:02.066Z,92.56
2022-07-25T05:11:02.002Z,92.56
2022-07-25T05:12:01.937Z,91.78
2022-07-25T05:13:01.876Z,91.35
2022-07-25T05:14:01.821Z,90.96
2022-07-25T05:15:01.759Z,91.83
2022-07-25T05:16:01.789Z,90.62
2022-07-25T05:17:01.664Z,89.79
2022-07-25T05:18:01.584Z,88.24
2022-07-25T05:19:01.537Z,86.74
2022-07-25T05:20:01.465Z,86.30
2022-07-25T05:21:01.410Z,83.92
2022-07-25T05:22:01.348Z,83.44
2022-07-25T05:23:01.295Z,84.06
2022-07-25T05:24:01.227Z,82.41
2022-07-25T05:25:01.186Z,82.80
2022-07-25T05:26:01.118Z,82.50
2022-07-25T05:27:01.060Z,81.15
2022-07-25T05:28:01.005Z,82.70
2022-07-25T05:29:00.946Z,82.69
2022-07-25T05:30:00.881Z,80.26
2022-07-25T05:31:00.927Z,80.94
2022-07-25T05:32:00.845Z,81.13
2022-07-25T05:33:00.720Z,80.96
2022-07-25T05:34:00.645Z,83.02
2022-07-25T05:35:00.608Z,79.43
2022-07-25T05:36:00.533Z,79.30
2022-07-25T05:37:00.478Z,80.67
2022-07-25T05:38:00.416Z,81.60
2022-07-25T05:39:00.365Z,82.18
2022-07-25T05:40:00.302Z,81.97
2022-07-25T05:41:00.245Z,81.04
2022-07-25T05:42:00.187Z,81.18
2022-07-25T05:43:03.308Z,79.61
2022-07-25T05:44:00.089Z,78.91
2022-07-25T05:45:00.036Z,79.91
2022-07-25T05:45:59.984Z,79.53
2022-07-25T05:46:59.962Z,79.32
2022-07-25T05:47:59.837Z,79.10
2022-07-25T05:48:59.848Z,79.53
2022-07-25T05:49:59.731Z,79.33
2022-07-25T05:50:59.666Z,78.85
2022-07-25T05:51:59.642Z,79.39
2022-07-25T05:52:59.554Z,80.32
2022-07-25T05:53:59.493Z,81.85
2022-07-25T05:54:59.437Z,80.38
2022-07-25T05:55:59.387Z,78.38
2022-07-25T05:56:59.323Z,78.58
2022-07-25T05:57:59.264Z,78.27
2022-07-25T05:58:59.227Z,75.85
2022-07-25T05:59:59.151Z,76.28
2022-07-25T06:00:59.112Z,76.32
2022-07-25T06:01:59.178Z,74.61
2022-07-25T06:02:59.121Z,75.31
2022-07-25T06:03:58.929Z,76.83
2022-07-25T06:04:58.870Z,77.51
2022-07-25T06:05:58.815Z,77.47
2022-07-25T06:06:58.766Z,77.51
2022-07-25T06:07:58.705Z,77.43
2022-07-25T06:08:58.662Z,78.02
2022-07-25T06:09:58.589Z,78.44
2022-07-25T06:10:58.526Z,77.76
2022-07-25T06:12:01.099Z,77.70
2022-07-25T06:12:58.438Z,77.55
2022-07-25T06:13:58.370Z,76.48
2022-07-25T06:14:58.306Z,76.35
2022-07-25T06:15:58.307Z,75.87
2022-07-25T06:16:58.190Z,75.25
2022-07-25T06:17:58.135Z,75.67
2022-07-25T06:18:58.075Z,76.79
2022-07-25T06:19:58.019Z,77.31
2022-07-25T06:20:57.962Z,77.41
2022-07-25T06:21:57.906Z,77.20
2022-07-25T06:22:57.853Z,75.05
2022-07-25T06:23:57.803Z,75.84
2022-07-25T06:24:57.741Z,75.58
2022-07-25T06:25:57.681Z,75.71
2022-07-25T06:26:57.631Z,74.95
2022-07-25T06:27:57.572Z,73.08
2022-07-25T06:28:57.514Z,73.93
2022-07-25T06:29:57.534Z,73.93
2022-07-25T06:30:57.402Z,75.03
2022-07-25T06:31:57.427Z,73.78
2022-07-25T06:32:57.320Z,72.51
2022-07-25T06:33:57.245Z,71.28
2022-07-25T06:34:57.179Z,72.25
2022-07-25T06:35:57.121Z,72.64
2022-07-25T06:36:57.113Z,73.67
2022-07-25T06:37:57.008Z,74.38
2022-07-25T06:38:56.957Z,75.19
2022-07-25T06:39:56.899Z,76.12
2022-07-25T06:40:56.843Z,76.32
2022-07-25T06:41:56.788Z,76.40
2022-07-25T06:42:56.730Z,74.74
2022-07-25T06:43:56.679Z,74.76
2022-07-25T06:44:56.625Z,75.84
2022-07-25T06:45:56.567Z,75.64
2022-07-25T06:46:56.564Z,75.74
2022-07-25T06:47:56.451Z,76.14
2022-07-25T06:48:56.489Z,73.06
2022-07-25T06:49:56.341Z,73.62
2022-07-25T06:50:56.290Z,73.63
2022-07-25T06:51:56.230Z,70.37
2022-07-25T06:52:56.178Z,70.80
2022-07-25T06:53:56.118Z,70.57
2022-07-25T06:54:56.064Z,71.08
2022-07-25T06:55:56.014Z,71.67
2022-07-25T06:56:55.956Z,72.13
2022-07-25T06:57:55.900Z,72.12
2022-07-25T06:58:55.853Z,71.86
2022-07-25T06:59:55.789Z,71.55
2022-07-25T07:00:55.781Z,71.00
2022-07-25T07:01:55.678Z,71.12
2022-07-25T07:02:55.649Z,72.09
2022-07-25T07:03:55.632Z,73.51
2022-07-25T07:04:55.519Z,73.86
2022-07-25T07:05:55.462Z,74.16
2022-07-25T07:06:55.434Z,74.04
2022-07-25T07:07:55.423Z,73.06
2022-07-25T07:08:55.301Z,73.03
2022-07-25T07:09:55.243Z,72.02
2022-07-25T07:10:55.190Z,73.38
2022-07-25T07:11:55.131Z,75.10
2022-07-25T07:12:55.075Z,73.43
2022-07-25T07:13:55.021Z,72.88
2022-07-25T07:14:54.966Z,71.83
2022-07-25T07:15:54.953Z,73.85
2022-07-25T07:16:54.861Z,71.97
2022-07-25T07:17:54.801Z,71.25
2022-07-25T07:18:54.746Z,73.10
2022-07-25T07:19:54.692Z,72.31
2022-07-25T07:20:54.637Z,73.60
2022-07-25T07:21:54.588Z,71.29
2022-07-25T07:22:54.528Z,71.51
2022-07-25T07:23:54.477Z,72.36
2022-07-25T07:24:54.420Z,71.25
2022-07-25T07:25:54.363Z,71.39
2022-07-25T07:26:54.319Z,70.80
2022-07-25T07:27:54.254Z,70.90
2022-07-25T07:28:54.204Z,67.80
2022-07-25T07:29:54.144Z,67.87
2022-07-25T07:31:54.173Z,68.16
2022-07-25T07:32:53.989Z,68.98
2022-07-25T07:33:53.931Z,70.61
2022-07-25T07:34:53.880Z,68.55
2022-07-25T07:35:53.891Z,69.53
2022-07-25T07:36:53.800Z,71.31
2022-07-25T07:37:53.804Z,73.01
2022-07-25T07:38:53.711Z,70.67
2022-07-25T07:39:53.647Z,72.23
2022-07-25T07:40:53.624Z,71.84
2022-07-25T07:41:53.658Z,71.68
2022-07-25T07:42:53.528Z,71.91
2022-07-25T07:43:53.416Z,70.54
2022-07-25T07:44:53.341Z,69.27
2022-07-25T07:45:53.282Z,68.46
2022-07-25T07:46:53.351Z,69.73
2022-07-25T07:47:53.183Z,68.49
2022-07-25T07:48:53.190Z,66.34
2022-07-25T07:49:53.068Z,66.96
2022-07-25T07:50:53.022Z,66.44
2022-07-25T07:51:52.964Z,68.95
2022-07-25T07:52:52.914Z,67.38
2022-07-25T07:53:52.855Z,68.78
2022-07-25T07:54:57.694Z,68.33
2022-07-25T07:55:52.745Z,68.43
2022-07-25T07:56:52.697Z,70.68
2022-07-25T07:57:52.641Z,68.07
2022-07-25T07:58:52.594Z,67.77
2022-07-25T07:59:52.535Z,67.68
2022-07-25T08:00:52.494Z,65.03
2022-07-25T08:01:52.514Z,65.97
2022-07-25T08:02:52.451Z,64.76
2022-07-25T08:03:52.319Z,65.75
2022-07-25T08:04:52.270Z,67.77
2022-07-25T08:05:52.217Z,70.09
2022-07-25T08:06:52.174Z,68.91
2022-07-25T08:07:52.111Z,71.39
2022-07-25T08:08:52.057Z,69.57
2022-07-25T08:09:52.008Z,70.55
2022-07-25T08:10:55.631Z,67.38
2022-07-25T08:11:51.903Z,69.44
2022-07-25T08:12:51.844Z,68.88
2022-07-25T08:13:51.800Z,70.05
2022-07-25T08:14:54.475Z,70.80
2022-07-25T08:15:51.798Z,72.24
2022-07-25T08:16:51.643Z,69.50
2022-07-25T08:17:51.591Z,68.49
2022-07-25T08:18:51.531Z,69.99
2022-07-25T08:19:51.475Z,69.27
2022-07-25T08:20:51.431Z,69.54
2022-07-25T08:21:51.374Z,68.76
2022-07-25T08:22:56.398Z,67.51
2022-07-25T08:23:51.277Z,66.01
2022-07-25T08:24:51.216Z,65.84
2022-07-25T08:25:51.168Z,66.33
2022-07-25T08:26:51.108Z,64.40
2022-07-25T08:27:51.066Z,65.88
2022-07-25T08:29:04.897Z,66.14
2022-07-25T08:29:50.975Z,64.31
2022-07-25T08:30:50.928Z,67.51
2022-07-25T08:31:50.992Z,70.03
2022-07-25T08:32:50.793Z,68.72
2022-07-25T08:33:50.746Z,67.19
2022-07-25T08:34:50.688Z,68.10
2022-07-25T08:35:50.635Z,67.22
2022-07-25T08:36:50.586Z,68.69
2022-07-25T08:37:50.532Z,66.93
2022-07-25T08:38:50.478Z,68.23
2022-07-25T08:39:50.426Z,66.79
2022-07-25T08:40:50.380Z,66.86
2022-07-25T08:41:50.319Z,65.12
2022-07-25T08:42:50.273Z,64.86
2022-07-25T08:43:50.214Z,65.78
2022-07-25T08:44:50.165Z,68.46
2022-07-25T08:45:50.122Z,67.94
2022-07-25T08:46:50.149Z,67.25
2022-07-25T08:47:50.012Z,65.88
2022-07-25T08:48:50.020Z,66.30
2022-07-25T08:49:49.906Z,67.25
2022-07-25T08:50:49.871Z,65.71
2022-07-25T08:51:51.080Z,65.12
2022-07-25T08:52:49.754Z,64.76
2022-07-25T08:53:49.702Z,65.28
2022-07-25T08:54:49.647Z,64.29
2022-07-25T08:55:49.649Z,63.73
2022-07-25T08:56:49.626Z,63.71
2022-07-25T08:57:49.626Z,64.86
2022-07-25T08:58:49.697Z,66.47
2022-07-25T08:59:49.409Z,68.33
2022-07-25T09:00:49.479Z,67.77
2022-07-25T09:01:49.535Z,69.70
2022-07-25T09:02:51.156Z,70.12
2022-07-25T09:03:49.254Z,71.72
2022-07-25T09:04:49.163Z,70.22
2022-07-25T09:05:49.109Z,70.09
2022-07-25T09:06:49.072Z,68.69
2022-07-25T09:07:49.401Z,67.68
2022-07-25T09:08:49.049Z,70.89
2022-07-25T09:09:48.920Z,67.09
2022-07-25T09:10:48.828Z,65.84
2022-07-25T09:11:48.896Z,67.45
2022-07-25T09:12:48.834Z,68.92
2022-07-25T09:13:48.743Z,67.91
2022-07-25T09:14:48.647Z,64.59
2022-07-25T09:15:49.587Z,66.10
2022-07-25T09:16:49.752Z,65.58
2022-07-25T09:17:49.850Z,62.65
2022-07-25T09:18:48.467Z,64.89
2022-07-25T09:19:48.616Z,65.09
2022-07-25T09:20:48.440Z,64.11
2022-07-25T09:21:50.135Z,63.98
2022-07-25T09:22:48.250Z,66.17
2022-07-25T09:23:48.255Z,64.53
2022-07-25T09:24:48.159Z,67.29
2022-07-25T09:25:48.097Z,66.86
2022-07-25T09:26:48.067Z,70.00
2022-07-25T09:27:48.007Z,65.94
2022-07-25T09:28:47.978Z,65.81
2022-07-25T09:29:47.882Z,65.38
2022-07-25T09:30:47.950Z,66.56
2022-07-25T09:31:47.858Z,66.24
2022-07-25T09:32:47.732Z,65.12
2022-07-25T09:33:47.731Z,66.27
2022-07-25T09:34:47.644Z,66.60
2022-07-25T09:35:47.617Z,64.66
2022-07-25T09:36:47.548Z,67.71
2022-07-25T09:37:47.520Z,67.41
2022-07-25T09:38:47.429Z,65.64
2022-07-25T09:39:48.493Z,64.95
2022-07-25T09:40:47.334Z,64.81
2022-07-25T09:41:47.274Z,63.56
2022-07-25T09:42:47.244Z,62.49
2022-07-25T09:43:47.180Z,65.94
2022-07-25T09:44:47.184Z,66.63
2022-07-25T09:45:47.090Z,66.66
2022-07-25T09:46:47.098Z,67.05
2022-07-25T09:47:46.936Z,63.81
2022-07-25T09:48:47.000Z,65.22
2022-07-25T09:49:46.848Z,66.66
2022-07-25T09:50:47.328Z,67.38
2022-07-25T09:51:46.784Z,65.84
2022-07-25T09:52:47.033Z,66.03
2022-07-25T09:53:46.734Z,66.30
2022-07-25T09:54:46.634Z,65.74
2022-07-25T09:55:46.604Z,65.08
2022-07-25T09:56:46.758Z,65.87
2022-07-25T09:57:46.514Z,64.04
2022-07-25T09:58:46.461Z,66.07
2022-07-25T09:59:46.388Z,67.12
2022-07-25T10:00:46.326Z,66.66
2022-07-25T10:01:46.334Z,66.50
2022-07-25T10:02:46.312Z,67.45
2022-07-25T10:03:46.182Z,66.27
2022-07-25T10:04:46.146Z,66.56
2022-07-25T10:05:46.090Z,66.27
2022-07-25T10:06:46.057Z,66.30
2022-07-25T10:07:45.960Z,67.81
2022-07-25T10:08:46.215Z,67.55
2022-07-25T10:09:45.872Z,67.05
2022-07-25T10:10:45.805Z,67.77
2022-07-25T10:11:45.816Z,68.20
2022-07-25T10:12:45.716Z,66.76
2022-07-25T10:13:45.689Z,66.99
2022-07-25T10:14:45.634Z,67.29
2022-07-25T10:15:45.600Z,65.54
2022-07-25T10:16:46.228Z,62.09
2022-07-25T10:17:45.543Z,65.41
2022-07-25T10:18:45.412Z,63.78
2022-07-25T10:19:50.769Z,65.18
2022-07-25T10:20:45.667Z,65.41
2022-07-25T10:21:45.323Z,63.87
2022-07-25T10:22:59.749Z,64.53
2022-07-25T10:23:47.325Z,63.74
2022-07-25T10:24:45.072Z,64.53
2022-07-25T10:25:48.951Z,64.66
2022-07-25T10:26:45.068Z,65.94
2022-07-25T10:27:44.957Z,65.50
2022-07-25T10:28:44.863Z,62.05
2022-07-25T10:29:44.906Z,62.48
2022-07-25T10:30:44.898Z,62.08
2022-07-25T10:31:49.771Z,61.82
2022-07-25T10:32:44.711Z,62.04
2022-07-25T10:33:44.681Z,60.56
2022-07-25T10:34:44.590Z,61.65
2022-07-25T10:35:44.741Z,60.89
2022-07-25T10:36:45.906Z,60.12
2022-07-25T10:37:48.871Z,63.87
2022-07-25T10:38:44.534Z,62.84
2022-07-25T10:39:44.412Z,63.07
2022-07-25T10:40:44.321Z,61.85
2022-07-25T10:41:44.223Z,60.04
2022-07-25T10:42:44.225Z,61.00
2022-07-25T10:43:48.253Z,62.22
2022-07-25T10:44:44.065Z,62.97
2022-07-25T10:45:44.128Z,61.62
2022-07-25T10:46:43.940Z,60.83
2022-07-25T10:47:43.984Z,60.31
2022-07-25T10:48:43.927Z,61.96
2022-07-25T10:50:13.587Z,61.83
2022-07-25T10:50:55.388Z,62.62
2022-07-25T10:51:43.766Z,63.34
2022-07-25T10:52:45.011Z,63.02
2022-07-25T10:53:43.984Z,62.82
2022-07-25T10:54:43.588Z,62.95
2022-07-25T10:55:43.518Z,62.98
2022-07-25T10:56:43.591Z,61.96
2022-07-25T10:58:07.880Z,61.72
2022-07-25T10:58:43.538Z,60.36
2022-07-25T10:59:45.797Z,60.30
2022-07-25T11:00:43.260Z,59.63
2022-07-25T11:01:43.332Z,58.67
2022-07-25T11:02:43.382Z,59.06
2022-07-25T11:03:43.152Z,58.40
2022-07-25T11:04:43.065Z,58.01
2022-07-25T11:05:43.033Z,57.48
2022-07-25T11:06:43.033Z,58.09
2022-07-25T11:07:58.592Z,60.04
2022-07-25T11:08:42.946Z,60.31
2022-07-25T11:09:42.786Z,62.03
2022-07-25T11:10:42.895Z,62.23
2022-07-25T11:11:42.898Z,63.93
2022-07-25T11:12:42.704Z,62.68
2022-07-25T11:13:42.603Z,62.41
2022-07-25T11:14:42.575Z,62.02
2022-07-25T11:15:42.509Z,61.24
2022-07-25T11:16:42.525Z,60.28
2022-07-25T11:17:42.384Z,61.26
2022-07-25T11:18:42.391Z,60.38
2022-07-25T11:19:42.328Z,60.57
2022-07-25T11:20:42.308Z,60.31
2022-07-25T11:21:42.211Z,60.04
2022-07-25T11:22:42.314Z,59.06
2022-07-25T11:23:42.119Z,61.21
2022-07-25T11:24:42.120Z,60.91
2022-07-25T11:25:42.022Z,60.61
2022-07-25T11:26:41.966Z,61.13
2022-07-25T11:27:41.934Z,61.18
2022-07-25T11:28:42.291Z,61.96
2022-07-25T11:29:41.898Z,62.36
2022-07-25T11:30:41.751Z,62.03
2022-07-25T11:31:41.811Z,62.23
2022-07-25T11:32:41.659Z,62.82
2022-07-25T11:33:41.595Z,61.67
2022-07-25T11:34:41.678Z,62.09
2022-07-25T11:35:41.523Z,61.00
2022-07-25T11:36:41.475Z,61.40
2022-07-25T11:37:41.413Z,61.50
2022-07-25T11:38:41.488Z,61.63
2022-07-25T11:39:41.712Z,60.21
2022-07-25T11:40:41.398Z,59.85
2022-07-25T11:41:41.198Z,60.12
2022-07-25T11:42:41.204Z,61.13
2022-07-25T11:43:41.107Z,60.84
2022-07-25T11:44:45.646Z,60.44
2022-07-25T11:45:41.090Z,59.59
2022-07-25T11:46:40.959Z,60.50
2022-07-25T11:47:40.931Z,59.39
2022-07-25T11:48:40.958Z,59.36
2022-07-25T11:49:40.772Z,59.75
2022-07-25T11:50:40.755Z,60.22
2022-07-25T11:51:40.685Z,61.11
2022-07-25T11:52:40.652Z,60.49
2022-07-25T11:53:40.590Z,60.29
2022-07-25T11:54:40.560Z,60.31
2022-07-25T11:55:40.498Z,59.99
2022-07-25T11:56:42.945Z,61.44
2022-07-25T11:57:40.402Z,59.60
2022-07-25T11:58:40.303Z,59.31
2022-07-25T11:59:40.284Z,61.74
2022-07-25T12:00:40.224Z,62.04
2022-07-25T12:01:40.196Z,61.71
2022-07-25T12:02:40.358Z,62.18
2022-07-25T12:03:40.184Z,62.66
2022-07-25T12:04:40.007Z,61.68
2022-07-25T12:05:39.944Z,62.40
2022-07-25T12:06:39.919Z,62.01
2022-07-25T12:07:39.854Z,61.05
2022-07-25T12:08:39.828Z,61.84
2022-07-25T12:09:39.764Z,62.27
2022-07-25T12:10:39.737Z,62.24
2022-07-25T12:11:39.745Z,61.94
2022-07-25T12:12:39.575Z,62.24
2022-07-25T12:13:39.605Z,61.45
2022-07-25T12:14:39.489Z,62.53
2022-07-25T12:15:39.463Z,62.63
2022-07-25T12:16:39.464Z,61.65
2022-07-25T12:17:39.375Z,63.22
2022-07-25T12:18:39.274Z,62.90
2022-07-25T12:19:39.214Z,61.35
2022-07-25T12:20:39.185Z,62.01
2022-07-25T12:21:39.123Z,63.39
2022-07-25T12:22:39.094Z,63.39
2022-07-25T12:23:38.998Z,63.75
2022-07-25T12:24:39.005Z,63.45
2022-07-25T12:25:38.908Z,62.60
2022-07-25T12:26:38.846Z,62.60
2022-07-25T12:27:38.823Z,62.01
2022-07-25T12:28:38.754Z,62.21
2022-07-25T12:29:38.728Z,62.70
2022-07-25T12:30:38.710Z,63.19
2022-07-25T12:31:38.655Z,63.39
2022-07-25T12:32:38.550Z,62.04
2022-07-25T12:33:38.546Z,61.55
2022-07-25T12:34:38.414Z,62.34
2022-07-25T12:35:38.390Z,60.30
2022-07-25T12:36:38.361Z,61.58
2022-07-25T12:37:38.299Z,59.81
2022-07-25T12:38:38.203Z,60.20
2022-07-25T12:39:38.175Z,60.37
2022-07-25T12:40:38.076Z,61.74
2022-07-25T12:41:38.085Z,61.35
2022-07-25T12:42:37.988Z,60.73
2022-07-25T12:43:37.993Z,59.45
2022-07-25T12:44:37.898Z,60.44
2022-07-25T12:45:37.858Z,61.81
2022-07-25T12:46:37.808Z,60.53
2022-07-25T12:47:37.747Z,61.74
2022-07-25T12:48:37.761Z,61.81
2022-07-25T12:49:37.622Z,61.61
2022-07-25T12:50:37.639Z,61.78
2022-07-25T12:51:37.531Z,61.05
2022-07-25T12:52:37.470Z,59.41